sensor_id;sensor_type;location;lat;lon;timestamp;P1;durP1;ratioP1;P2;durP2;ratioP2
13197;SDS011;6664;52.514;13.440;2022-09-09T00:04:28;9.93;;;7.70;;
13197;SDS011;6664;52.514;13.440;2022-09-09T00:07:01;9.90;;;7.20;;
13197;SDS011;6664;52.514;13.440;2022-09-09T00:12:13;8.90;;;7.30;;
13197;SDS011;6664;52.514;13.440;2022-09-09T00:15:02;12.27;;;7.70;;
13197;SDS011;6664;52.514;13.440;2022-09-09T00:20:43;14.03;;;8.30;;
13197;SDS011;6664;52.514;13.440;2022-09-09T00:28:30;11.10;;;7.20;;
13197;SDS011;6664;52.514;13.440;2022-09-09T00:31:12;12.37;;;7.53;;
13197;SDS011;6664;52.514;13.440;2022-09-09T00:33:44;9.77;;;7.07;;
13197;SDS011;6664;52.514;13.440;2022-09-09T00:36:14;15.73;;;8.37;;
13197;SDS011;6664;52.514;13.440;2022-09-09T00:38:49;10.23;;;7.73;;
13197;SDS011;6664;52.514;13.440;2022-09-09T00:46:41;12.27;;;7.87;;
13197;SDS011;6664;52.514;13.440;2022-09-09T00:54:44;12.37;;;8.60;;
13197;SDS011;6664;52.514;13.440;2022-09-09T00:57:25;12.27;;;7.87;;
13197;SDS011;6664;52.514;13.440;2022-09-09T01:02:33;11.47;;;7.83;;
13197;SDS011;6664;52.514;13.440;2022-09-09T01:05:12;11.57;;;7.30;;
13197;SDS011;6664;52.514;13.440;2022-09-09T01:07:50;11.30;;;7.13;;
13197;SDS011;6664;52.514;13.440;2022-09-09T01:10:29;11.57;;;8.10;;
13197;SDS011;6664;52.514;13.440;2022-09-09T01:13:24;9.43;;;7.30;;
13197;SDS011;6664;52.514;13.440;2022-09-09T01:15:57;12.07;;;7.70;;
13197;SDS011;6664;52.514;13.440;2022-09-09T01:18:28;13.90;;;8.43;;
13197;SDS011;6664;52.514;13.440;2022-09-09T01:23:47;9.00;;;7.03;;
13197;SDS011;6664;52.514;13.440;2022-09-09T01:26:33;10.53;;;7.30;;
13197;SDS011;6664;52.514;13.440;2022-09-09T01:29:17;12.40;;;7.80;;
13197;SDS011;6664;52.514;13.440;2022-09-09T01:34:22;11.57;;;8.37;;
13197;SDS011;6664;52.514;13.440;2022-09-09T01:39:39;23.20;;;8.90;;
13197;SDS011;6664;52.514;13.440;2022-09-09T01:42:09;12.67;;;8.10;;
13197;SDS011;6664;52.514;13.440;2022-09-09T01:44:37;13.10;;;9.17;;
13197;SDS011;6664;52.514;13.440;2022-09-09T01:47:05;15.30;;;8.20;;
13197;SDS011;6664;52.514;13.440;2022-09-09T01:49:32;17.00;;;8.53;;
13197;SDS011;6664;52.514;13.440;2022-09-09T01:51:59;15.00;;;8.60;;
13197;SDS011;6664;52.514;13.440;2022-09-09T01:54:27;13.77;;;8.50;;
13197;SDS011;6664;52.514;13.440;2022-09-09T02:00:01;12.87;;;8.30;;
13197;SDS011;6664;52.514;13.440;2022-09-09T02:08:00;11.90;;;6.33;;
13197;SDS011;6664;52.514;13.440;2022-09-09T02:11:19;13.00;;;7.50;;
13197;SDS011;6664;52.514;13.440;2022-09-09T02:13:22;13.83;;;7.53;;
13197;SDS011;6664;52.514;13.440;2022-09-09T02:18:18;10.90;;;7.03;;
13197;SDS011;6664;52.514;13.440;2022-09-09T02:20:51;15.93;;;8.60;;
13197;SDS011;6664;52.514;13.440;2022-09-09T02:23:19;10.27;;;6.93;;
13197;SDS011;6664;52.514;13.440;2022-09-09T02:25:49;10.20;;;6.70;;
13197;SDS011;6664;52.514;13.440;2022-09-09T02:28:19;10.17;;;7.10;;
13197;SDS011;6664;52.514;13.440;2022-09-09T02:30:49;11.23;;;6.93;;
13197;SDS011;6664;52.514;13.440;2022-09-09T02:33:26;10.10;;;6.63;;
13197;SDS011;6664;52.514;13.440;2022-09-09T02:36:02;12.17;;;7.30;;
13197;SDS011;6664;52.514;13.440;2022-09-09T02:38:35;13.23;;;7.83;;
13197;SDS011;6664;52.514;13.440;2022-09-09T02:41:09;11.57;;;7.83;;
13197;SDS011;6664;52.514;13.440;2022-09-09T02:43:36;16.13;;;7.80;;
13197;SDS011;6664;52.514;13.440;2022-09-09T02:46:24;15.00;;;7.83;;
13197;SDS011;6664;52.514;13.440;2022-09-09T02:49:09;11.77;;;7.63;;
13197;SDS011;6664;52.514;13.440;2022-09-09T02:54:37;19.20;;;7.67;;
13197;SDS011;6664;52.514;13.440;2022-09-09T02:57:10;14.00;;;7.87;;
13197;SDS011;6664;52.514;13.440;2022-09-09T02:59:39;13.77;;;7.43;;
13197;SDS011;6664;52.514;13.440;2022-09-09T03:02:09;13.10;;;7.20;;
13197;SDS011;6664;52.514;13.440;2022-09-09T03:04:37;12.30;;;7.53;;
13197;SDS011;6664;52.514;13.440;2022-09-09T03:07:05;12.60;;;7.83;;
13197;SDS011;6664;52.514;13.440;2022-09-09T03:09:34;12.30;;;7.43;;
13197;SDS011;6664;52.514;13.440;2022-09-09T03:12:03;9.47;;;6.70;;
13197;SDS011;6664;52.514;13.440;2022-09-09T03:14:30;12.77;;;7.10;;
13197;SDS011;6664;52.514;13.440;2022-09-09T03:16:57;11.20;;;7.73;;
13197;SDS011;6664;52.514;13.440;2022-09-09T03:19:29;15.50;;;8.47;;
13197;SDS011;6664;52.514;13.440;2022-09-09T03:21:58;16.57;;;7.53;;
13197;SDS011;6664;52.514;13.440;2022-09-09T03:24:26;13.30;;;7.60;;
13197;SDS011;6664;52.514;13.440;2022-09-09T03:26:53;14.93;;;7.20;;
13197;SDS011;6664;52.514;13.440;2022-09-09T03:29:22;10.27;;;7.50;;
13197;SDS011;6664;52.514;13.440;2022-09-09T03:31:48;14.37;;;7.67;;
13197;SDS011;6664;52.514;13.440;2022-09-09T03:34:16;11.57;;;7.53;;
13197;SDS011;6664;52.514;13.440;2022-09-09T03:36:43;14.10;;;7.77;;
13197;SDS011;6664;52.514;13.440;2022-09-09T03:39:10;15.47;;;8.10;;
13197;SDS011;6664;52.514;13.440;2022-09-09T03:41:37;10.60;;;7.70;;
13197;SDS011;6664;52.514;13.440;2022-09-09T03:44:04;12.07;;;7.00;;
13197;SDS011;6664;52.514;13.440;2022-09-09T03:46:31;10.13;;;6.97;;
13197;SDS011;6664;52.514;13.440;2022-09-09T03:48:58;11.80;;;7.30;;
13197;SDS011;6664;52.514;13.440;2022-09-09T03:51:25;10.70;;;6.43;;
13197;SDS011;6664;52.514;13.440;2022-09-09T03:53:54;15.87;;;7.10;;
13197;SDS011;6664;52.514;13.440;2022-09-09T03:56:24;10.37;;;6.33;;
13197;SDS011;6664;52.514;13.440;2022-09-09T03:58:51;10.00;;;6.80;;
13197;SDS011;6664;52.514;13.440;2022-09-09T04:01:20;9.93;;;6.70;;
13197;SDS011;6664;52.514;13.440;2022-09-09T04:03:47;10.47;;;7.27;;
13197;SDS011;6664;52.514;13.440;2022-09-09T04:06:14;15.00;;;6.80;;
13197;SDS011;6664;52.514;13.440;2022-09-09T04:08:41;10.60;;;7.20;;
13197;SDS011;6664;52.514;13.440;2022-09-09T04:11:08;9.07;;;6.70;;
13197;SDS011;6664;52.514;13.440;2022-09-09T04:13:38;12.40;;;7.20;;
13197;SDS011;6664;52.514;13.440;2022-09-09T04:16:05;14.67;;;6.90;;
13197;SDS011;6664;52.514;13.440;2022-09-09T04:18:33;16.67;;;6.90;;
13197;SDS011;6664;52.514;13.440;2022-09-09T04:21:01;10.27;;;6.27;;
13197;SDS011;6664;52.514;13.440;2022-09-09T04:23:32;15.90;;;8.07;;
13197;SDS011;6664;52.514;13.440;2022-09-09T04:26:01;11.93;;;7.07;;
13197;SDS011;6664;52.514;13.440;2022-09-09T04:28:32;14.67;;;7.03;;
13197;SDS011;6664;52.514;13.440;2022-09-09T04:31:07;10.50;;;6.30;;
13197;SDS011;6664;52.514;13.440;2022-09-09T04:33:45;10.70;;;7.30;;
13197;SDS011;6664;52.514;13.440;2022-09-09T04:36:13;11.33;;;6.40;;
13197;SDS011;6664;52.514;13.440;2022-09-09T04:38:40;9.27;;;6.10;;
13197;SDS011;6664;52.514;13.440;2022-09-09T04:41:07;11.77;;;6.70;;
13197;SDS011;6664;52.514;13.440;2022-09-09T04:43:37;15.33;;;7.10;;
13197;SDS011;6664;52.514;13.440;2022-09-09T04:46:05;9.07;;;6.20;;
13197;SDS011;6664;52.514;13.440;2022-09-09T04:48:32;9.87;;;6.30;;
13197;SDS011;6664;52.514;13.440;2022-09-09T04:51:03;13.33;;;7.80;;
13197;SDS011;6664;52.514;13.440;2022-09-09T04:53:31;10.10;;;6.43;;
13197;SDS011;6664;52.514;13.440;2022-09-09T04:56:01;14.90;;;7.87;;
13197;SDS011;6664;52.514;13.440;2022-09-09T04:58:36;11.77;;;6.30;;
13197;SDS011;6664;52.514;13.440;2022-09-09T05:01:04;8.20;;;7.00;;
13197;SDS011;6664;52.514;13.440;2022-09-09T05:03:40;9.73;;;6.90;;
13197;SDS011;6664;52.514;13.440;2022-09-09T05:06:08;17.03;;;6.80;;
13197;SDS011;6664;52.514;13.440;2022-09-09T05:08:37;8.93;;;6.43;;
13197;SDS011;6664;52.514;13.440;2022-09-09T05:11:18;12.60;;;7.40;;
13197;SDS011;6664;52.514;13.440;2022-09-09T05:13:48;7.80;;;6.50;;
13197;SDS011;6664;52.514;13.440;2022-09-09T05:16:18;11.90;;;7.43;;
13197;SDS011;6664;52.514;13.440;2022-09-09T05:18:47;15.03;;;6.87;;
13197;SDS011;6664;52.514;13.440;2022-09-09T05:21:17;13.10;;;7.57;;
13197;SDS011;6664;52.514;13.440;2022-09-09T05:23:45;9.10;;;6.47;;
13197;SDS011;6664;52.514;13.440;2022-09-09T05:26:16;13.37;;;7.03;;
13197;SDS011;6664;52.514;13.440;2022-09-09T05:28:44;9.50;;;6.27;;
13197;SDS011;6664;52.514;13.440;2022-09-09T05:31:13;15.03;;;7.47;;
13197;SDS011;6664;52.514;13.440;2022-09-09T05:33:45;12.60;;;7.93;;
13197;SDS011;6664;52.514;13.440;2022-09-09T05:36:17;12.23;;;6.73;;
13197;SDS011;6664;52.514;13.440;2022-09-09T05:38:46;9.13;;;7.03;;
13197;SDS011;6664;52.514;13.440;2022-09-09T05:41:16;11.47;;;6.97;;
13197;SDS011;6664;52.514;13.440;2022-09-09T05:43:44;13.47;;;6.97;;
13197;SDS011;6664;52.514;13.440;2022-09-09T05:46:18;7.97;;;6.23;;
13197;SDS011;6664;52.514;13.440;2022-09-09T05:48:50;10.13;;;6.87;;
13197;SDS011;6664;52.514;13.440;2022-09-09T05:51:20;8.07;;;7.10;;
13197;SDS011;6664;52.514;13.440;2022-09-09T05:53:48;9.73;;;6.73;;
13197;SDS011;6664;52.514;13.440;2022-09-09T05:56:19;15.80;;;6.73;;
13197;SDS011;6664;52.514;13.440;2022-09-09T05:58:54;13.93;;;6.50;;
13197;SDS011;6664;52.514;13.440;2022-09-09T06:01:26;21.70;;;8.27;;
13197;SDS011;6664;52.514;13.440;2022-09-09T06:04:00;16.37;;;7.10;;
13197;SDS011;6664;52.514;13.440;2022-09-09T06:06:30;13.60;;;6.50;;
13197;SDS011;6664;52.514;13.440;2022-09-09T06:09:03;9.53;;;6.53;;
13197;SDS011;6664;52.514;13.440;2022-09-09T06:11:33;6.50;;;5.10;;
13197;SDS011;6664;52.514;13.440;2022-09-09T06:14:02;7.30;;;6.23;;
13197;SDS011;6664;52.514;13.440;2022-09-09T06:16:29;21.47;;;6.27;;
13197;SDS011;6664;52.514;13.440;2022-09-09T06:18:58;7.80;;;5.73;;
13197;SDS011;6664;52.514;13.440;2022-09-09T06:21:30;13.13;;;5.87;;
13197;SDS011;6664;52.514;13.440;2022-09-09T06:24:03;10.30;;;5.30;;
13197;SDS011;6664;52.514;13.440;2022-09-09T06:26:34;9.20;;;6.13;;
13197;SDS011;6664;52.514;13.440;2022-09-09T06:29:03;7.50;;;5.40;;
13197;SDS011;6664;52.514;13.440;2022-09-09T06:31:34;5.30;;;4.50;;
13197;SDS011;6664;52.514;13.440;2022-09-09T06:34:06;5.50;;;4.73;;
13197;SDS011;6664;52.514;13.440;2022-09-09T06:36:36;5.07;;;4.53;;
13197;SDS011;6664;52.514;13.440;2022-09-09T06:39:04;6.60;;;4.70;;
13197;SDS011;6664;52.514;13.440;2022-09-09T06:41:39;7.23;;;4.63;;
13197;SDS011;6664;52.514;13.440;2022-09-09T06:44:06;5.80;;;3.97;;
13197;SDS011;6664;52.514;13.440;2022-09-09T06:46:35;5.30;;;4.80;;
13197;SDS011;6664;52.514;13.440;2022-09-09T06:49:02;5.90;;;4.20;;
13197;SDS011;6664;52.514;13.440;2022-09-09T06:51:32;5.37;;;4.10;;
13197;SDS011;6664;52.514;13.440;2022-09-09T06:54:01;4.53;;;4.03;;
13197;SDS011;6664;52.514;13.440;2022-09-09T06:56:30;3.47;;;3.17;;
13197;SDS011;6664;52.514;13.440;2022-09-09T06:58:59;10.53;;;4.30;;
13197;SDS011;6664;52.514;13.440;2022-09-09T07:01:29;5.10;;;4.60;;
13197;SDS011;6664;52.514;13.440;2022-09-09T07:03:58;7.10;;;4.43;;
13197;SDS011;6664;52.514;13.440;2022-09-09T07:06:27;4.10;;;3.03;;
13197;SDS011;6664;52.514;13.440;2022-09-09T07:09:04;6.20;;;4.50;;
13197;SDS011;6664;52.514;13.440;2022-09-09T07:11:42;4.77;;;4.30;;
13197;SDS011;6664;52.514;13.440;2022-09-09T07:14:16;4.50;;;3.90;;
13197;SDS011;6664;52.514;13.440;2022-09-09T07:16:44;5.70;;;4.73;;
13197;SDS011;6664;52.514;13.440;2022-09-09T07:19:12;8.13;;;4.13;;
13197;SDS011;6664;52.514;13.440;2022-09-09T07:21:40;6.70;;;4.30;;
13197;SDS011;6664;52.514;13.440;2022-09-09T07:24:08;3.57;;;3.27;;
13197;SDS011;6664;52.514;13.440;2022-09-09T07:26:37;5.10;;;4.10;;
13197;SDS011;6664;52.514;13.440;2022-09-09T07:29:05;5.10;;;4.20;;
13197;SDS011;6664;52.514;13.440;2022-09-09T07:31:34;6.67;;;3.43;;
13197;SDS011;6664;52.514;13.440;2022-09-09T07:34:06;3.90;;;3.40;;
13197;SDS011;6664;52.514;13.440;2022-09-09T07:36:34;4.43;;;3.00;;
13197;SDS011;6664;52.514;13.440;2022-09-09T07:39:09;9.47;;;3.07;;
13197;SDS011;6664;52.514;13.440;2022-09-09T07:41:44;9.07;;;3.40;;
13197;SDS011;6664;52.514;13.440;2022-09-09T07:44:13;10.23;;;3.40;;
13197;SDS011;6664;52.514;13.440;2022-09-09T07:46:45;5.73;;;3.20;;
13197;SDS011;6664;52.514;13.440;2022-09-09T07:49:12;4.60;;;3.03;;
13197;SDS011;6664;52.514;13.440;2022-09-09T07:51:40;4.10;;;2.33;;
13197;SDS011;6664;52.514;13.440;2022-09-09T07:54:11;4.43;;;2.43;;
13197;SDS011;6664;52.514;13.440;2022-09-09T07:56:40;2.63;;;2.43;;
13197;SDS011;6664;52.514;13.440;2022-09-09T07:59:08;9.20;;;2.60;;
13197;SDS011;6664;52.514;13.440;2022-09-09T08:01:37;3.47;;;2.20;;
13197;SDS011;6664;52.514;13.440;2022-09-09T08:04:07;2.53;;;2.33;;
13197;SDS011;6664;52.514;13.440;2022-09-09T08:06:40;2.93;;;1.87;;
13197;SDS011;6664;52.514;13.440;2022-09-09T08:09:13;2.20;;;2.10;;
13197;SDS011;6664;52.514;13.440;2022-09-09T08:11:42;3.90;;;2.20;;
13197;SDS011;6664;52.514;13.440;2022-09-09T08:14:12;2.30;;;1.73;;
13197;SDS011;6664;52.514;13.440;2022-09-09T08:16:40;1.50;;;1.40;;
13197;SDS011;6664;52.514;13.440;2022-09-09T08:19:09;2.87;;;2.03;;
13197;SDS011;6664;52.514;13.440;2022-09-09T08:21:42;1.60;;;1.50;;
13197;SDS011;6664;52.514;13.440;2022-09-09T08:24:10;3.50;;;2.00;;
13197;SDS011;6664;52.514;13.440;2022-09-09T08:26:38;3.53;;;1.90;;
13197;SDS011;6664;52.514;13.440;2022-09-09T08:29:08;3.57;;;1.97;;
13197;SDS011;6664;52.514;13.440;2022-09-09T08:31:44;3.73;;;2.17;;
13197;SDS011;6664;52.514;13.440;2022-09-09T08:34:13;2.40;;;2.10;;
13197;SDS011;6664;52.514;13.440;2022-09-09T08:36:42;3.50;;;2.27;;
13197;SDS011;6664;52.514;13.440;2022-09-09T08:39:15;4.50;;;1.90;;
13197;SDS011;6664;52.514;13.440;2022-09-09T08:47:46;2.77;;;1.90;;
13197;SDS011;6664;52.514;13.440;2022-09-09T08:53:05;1.93;;;1.70;;
13197;SDS011;6664;52.514;13.440;2022-09-09T08:58:16;4.87;;;1.50;;
13197;SDS011;6664;52.514;13.440;2022-09-09T09:03:53;1.60;;;1.50;;
13197;SDS011;6664;52.514;13.440;2022-09-09T09:12:54;2.87;;;2.03;;
13197;SDS011;6664;52.514;13.440;2022-09-09T09:15:26;3.90;;;1.60;;
13197;SDS011;6664;52.514;13.440;2022-09-09T09:18:03;1.43;;;1.33;;
13197;SDS011;6664;52.514;13.440;2022-09-09T09:20:40;1.50;;;1.40;;
13197;SDS011;6664;52.514;13.440;2022-09-09T09:23:15;4.20;;;1.30;;
13197;SDS011;6664;52.514;13.440;2022-09-09T09:25:48;2.00;;;1.27;;
13197;SDS011;6664;52.514;13.440;2022-09-09T09:28:23;4.27;;;1.80;;
13197;SDS011;6664;52.514;13.440;2022-09-09T09:31:07;1.63;;;1.33;;
13197;SDS011;6664;52.514;13.440;2022-09-09T09:36:15;3.93;;;1.10;;
13197;SDS011;6664;52.514;13.440;2022-09-09T09:38:58;2.90;;;1.30;;
13197;SDS011;6664;52.514;13.440;2022-09-09T09:41:46;3.43;;;1.17;;
13197;SDS011;6664;52.514;13.440;2022-09-09T09:44:22;1.87;;;1.50;;
13197;SDS011;6664;52.514;13.440;2022-09-09T09:47:04;1.80;;;1.37;;
13197;SDS011;6664;52.514;13.440;2022-09-09T09:49:33;1.40;;;1.30;;
13197;SDS011;6664;52.514;13.440;2022-09-09T09:52:00;3.43;;;1.60;;
13197;SDS011;6664;52.514;13.440;2022-09-09T09:54:29;3.97;;;1.17;;
13197;SDS011;6664;52.514;13.440;2022-09-09T09:57:13;2.60;;;1.57;;
13197;SDS011;6664;52.514;13.440;2022-09-09T09:59:42;2.60;;;1.80;;
13197;SDS011;6664;52.514;13.440;2022-09-09T10:02:16;4.03;;;1.53;;
13197;SDS011;6664;52.514;13.440;2022-09-09T10:07:42;2.47;;;1.27;;
13197;SDS011;6664;52.514;13.440;2022-09-09T10:10:13;2.57;;;1.57;;
13197;SDS011;6664;52.514;13.440;2022-09-09T10:18:47;2.17;;;1.30;;
13197;SDS011;6664;52.514;13.440;2022-09-09T10:32:33;1.00;;;1.00;;
13197;SDS011;6664;52.514;13.440;2022-09-09T10:54:30;2.23;;;1.17;;
13197;SDS011;6664;52.514;13.440;2022-09-09T10:57:36;1.90;;;1.10;;
13197;SDS011;6664;52.514;13.440;2022-09-09T11:02:56;4.10;;;1.10;;
13197;SDS011;6664;52.514;13.440;2022-09-09T11:05:43;2.70;;;1.30;;
13197;SDS011;6664;52.514;13.440;2022-09-09T11:08:28;1.20;;;1.10;;
13197;SDS011;6664;52.514;13.440;2022-09-09T11:16:28;1.90;;;1.23;;
13197;SDS011;6664;52.514;13.440;2022-09-09T11:22:04;2.30;;;1.00;;
13197;SDS011;6664;52.514;13.440;2022-09-09T11:24:45;2.13;;;1.10;;
13197;SDS011;6664;52.514;13.440;2022-09-09T11:27:29;2.60;;;1.10;;
13197;SDS011;6664;52.514;13.440;2022-09-09T11:35:58;4.90;;;1.47;;
13197;SDS011;6664;52.514;13.440;2022-09-09T11:38:46;2.20;;;1.20;;
13197;SDS011;6664;52.514;13.440;2022-09-09T11:41:17;0.80;;;0.80;;
13197;SDS011;6664;52.514;13.440;2022-09-09T11:43:50;1.27;;;1.00;;
13197;SDS011;6664;52.514;13.440;2022-09-09T11:46:19;2.40;;;1.53;;
13197;SDS011;6664;52.514;13.440;2022-09-09T11:49:01;4.03;;;1.40;;
13197;SDS011;6664;52.514;13.440;2022-09-09T11:51:31;1.63;;;1.20;;
13197;SDS011;6664;52.514;13.440;2022-09-09T11:54:00;1.87;;;0.90;;
13197;SDS011;6664;52.514;13.440;2022-09-09T11:56:33;2.50;;;1.20;;
13197;SDS011;6664;52.514;13.440;2022-09-09T11:59:22;3.10;;;1.30;;
13197;SDS011;6664;52.514;13.440;2022-09-09T12:02:01;3.23;;;1.20;;
13197;SDS011;6664;52.514;13.440;2022-09-09T12:04:39;1.53;;;0.80;;
13197;SDS011;6664;52.514;13.440;2022-09-09T12:12:21;2.10;;;1.03;;
13197;SDS011;6664;52.514;13.440;2022-09-09T12:15:00;2.33;;;0.97;;
13197;SDS011;6664;52.514;13.440;2022-09-09T12:30:26;1.10;;;0.80;;
13197;SDS011;6664;52.514;13.440;2022-09-09T12:33:17;1.53;;;0.93;;
13197;SDS011;6664;52.514;13.440;2022-09-09T12:35:47;2.63;;;1.13;;
13197;SDS011;6664;52.514;13.440;2022-09-09T12:38:35;1.40;;;1.00;;
13197;SDS011;6664;52.514;13.440;2022-09-09T12:41:04;2.20;;;1.07;;
13197;SDS011;6664;52.514;13.440;2022-09-09T12:43:32;2.30;;;0.90;;
13197;SDS011;6664;52.514;13.440;2022-09-09T12:46:08;1.27;;;0.90;;
13197;SDS011;6664;52.514;13.440;2022-09-09T12:48:44;2.33;;;0.90;;
13197;SDS011;6664;52.514;13.440;2022-09-09T12:51:24;1.27;;;1.07;;
13197;SDS011;6664;52.514;13.440;2022-09-09T12:53:55;1.00;;;0.80;;
13197;SDS011;6664;52.514;13.440;2022-09-09T12:56:23;1.63;;;0.83;;
13197;SDS011;6664;52.514;13.440;2022-09-09T12:58:53;6.17;;;1.07;;
13197;SDS011;6664;52.514;13.440;2022-09-09T13:01:26;1.23;;;0.83;;
13197;SDS011;6664;52.514;13.440;2022-09-09T13:03:58;1.70;;;1.13;;
13197;SDS011;6664;52.514;13.440;2022-09-09T13:06:29;0.90;;;0.80;;
13197;SDS011;6664;52.514;13.440;2022-09-09T13:09:00;1.33;;;0.97;;
13197;SDS011;6664;52.514;13.440;2022-09-09T13:14:27;3.10;;;1.10;;
13197;SDS011;6664;52.514;13.440;2022-09-09T13:16:59;1.93;;;0.90;;
13197;SDS011;6664;52.514;13.440;2022-09-09T13:19:31;3.20;;;1.03;;
13197;SDS011;6664;52.514;13.440;2022-09-09T13:22:14;2.37;;;0.77;;
13197;SDS011;6664;52.514;13.440;2022-09-09T13:27:39;1.43;;;0.90;;
13197;SDS011;6664;52.514;13.440;2022-09-09T13:30:29;2.77;;;1.37;;
13197;SDS011;6664;52.514;13.440;2022-09-09T13:35:45;8.10;;;1.03;;
13197;SDS011;6664;52.514;13.440;2022-09-09T13:38:16;3.00;;;1.30;;
13197;SDS011;6664;52.514;13.440;2022-09-09T13:43:37;1.80;;;1.10;;
13197;SDS011;6664;52.514;13.440;2022-09-09T13:51:39;0.87;;;0.60;;
13197;SDS011;6664;52.514;13.440;2022-09-09T13:54:06;1.17;;;0.80;;
13197;SDS011;6664;52.514;13.440;2022-09-09T13:56:37;2.17;;;1.00;;
13197;SDS011;6664;52.514;13.440;2022-09-09T13:59:06;1.60;;;0.77;;
13197;SDS011;6664;52.514;13.440;2022-09-09T14:01:37;0.60;;;0.60;;
13197;SDS011;6664;52.514;13.440;2022-09-09T14:04:06;2.05;;;0.98;;
13197;SDS011;6664;52.514;13.440;2022-09-09T14:06:36;1.30;;;0.83;;
13197;SDS011;6664;52.514;13.440;2022-09-09T14:09:06;0.80;;;0.80;;
13197;SDS011;6664;52.514;13.440;2022-09-09T14:11:33;3.90;;;0.97;;
13197;SDS011;6664;52.514;13.440;2022-09-09T14:14:00;1.47;;;0.70;;
13197;SDS011;6664;52.514;13.440;2022-09-09T14:16:28;1.23;;;0.90;;
13197;SDS011;6664;52.514;13.440;2022-09-09T14:18:57;1.80;;;0.93;;
13197;SDS011;6664;52.514;13.440;2022-09-09T14:21:27;1.90;;;0.80;;
13197;SDS011;6664;52.514;13.440;2022-09-09T14:23:54;1.10;;;1.00;;
13197;SDS011;6664;52.514;13.440;2022-09-09T14:26:24;3.90;;;0.90;;
13197;SDS011;6664;52.514;13.440;2022-09-09T14:28:51;4.63;;;1.00;;
13197;SDS011;6664;52.514;13.440;2022-09-09T14:31:24;3.47;;;1.35;;
13197;SDS011;6664;52.514;13.440;2022-09-09T14:33:51;1.25;;;0.70;;
13197;SDS011;6664;52.514;13.440;2022-09-09T14:36:18;0.80;;;0.70;;
13197;SDS011;6664;52.514;13.440;2022-09-09T14:38:45;0.77;;;0.70;;
13197;SDS011;6664;52.514;13.440;2022-09-09T14:41:13;1.10;;;0.65;;
13197;SDS011;6664;52.514;13.440;2022-09-09T14:43:45;1.67;;;1.40;;
13197;SDS011;6664;52.514;13.440;2022-09-09T14:46:16;1.17;;;0.90;;
13197;SDS011;6664;52.514;13.440;2022-09-09T14:48:44;1.37;;;0.70;;
13197;SDS011;6664;52.514;13.440;2022-09-09T14:51:24;1.90;;;0.90;;
13197;SDS011;6664;52.514;13.440;2022-09-09T14:53:54;2.30;;;1.07;;
13197;SDS011;6664;52.514;13.440;2022-09-09T14:56:27;3.10;;;1.20;;
13197;SDS011;6664;52.514;13.440;2022-09-09T14:58:56;2.87;;;1.10;;
13197;SDS011;6664;52.514;13.440;2022-09-09T15:01:24;2.07;;;1.00;;
13197;SDS011;6664;52.514;13.440;2022-09-09T15:03:58;1.10;;;1.00;;
13197;SDS011;6664;52.514;13.440;2022-09-09T15:06:29;1.27;;;1.17;;
13197;SDS011;6664;52.514;13.440;2022-09-09T15:09:01;2.90;;;1.13;;
13197;SDS011;6664;52.514;13.440;2022-09-09T15:11:30;1.07;;;0.97;;
13197;SDS011;6664;52.514;13.440;2022-09-09T15:14:04;1.63;;;0.80;;
13197;SDS011;6664;52.514;13.440;2022-09-09T15:16:34;1.00;;;0.90;;
13197;SDS011;6664;52.514;13.440;2022-09-09T15:19:02;2.50;;;0.97;;
13197;SDS011;6664;52.514;13.440;2022-09-09T15:21:32;1.70;;;1.40;;
13197;SDS011;6664;52.514;13.440;2022-09-09T15:24:00;3.33;;;1.23;;
13197;SDS011;6664;52.514;13.440;2022-09-09T15:26:27;1.73;;;0.90;;
13197;SDS011;6664;52.514;13.440;2022-09-09T15:28:56;1.50;;;0.80;;
13197;SDS011;6664;52.514;13.440;2022-09-09T15:31:29;8.03;;;1.00;;
13197;SDS011;6664;52.514;13.440;2022-09-09T15:34:02;2.60;;;0.87;;
13197;SDS011;6664;52.514;13.440;2022-09-09T15:36:35;1.43;;;1.00;;
13197;SDS011;6664;52.514;13.440;2022-09-09T15:39:03;1.27;;;1.07;;
13197;SDS011;6664;52.514;13.440;2022-09-09T15:41:32;4.30;;;0.90;;
13197;SDS011;6664;52.514;13.440;2022-09-09T15:43:59;1.90;;;1.03;;
13197;SDS011;6664;52.514;13.440;2022-09-09T15:46:28;1.40;;;0.90;;
13197;SDS011;6664;52.514;13.440;2022-09-09T15:49:03;3.03;;;1.00;;
13197;SDS011;6664;52.514;13.440;2022-09-09T15:51:30;1.47;;;1.10;;
13197;SDS011;6664;52.514;13.440;2022-09-09T15:54:09;2.40;;;0.80;;
13197;SDS011;6664;52.514;13.440;2022-09-09T15:56:38;1.90;;;0.90;;
13197;SDS011;6664;52.514;13.440;2022-09-09T15:59:06;1.13;;;1.03;;
13197;SDS011;6664;52.514;13.440;2022-09-09T16:01:33;1.20;;;0.70;;
13197;SDS011;6664;52.514;13.440;2022-09-09T16:04:05;1.87;;;0.80;;
13197;SDS011;6664;52.514;13.440;2022-09-09T16:06:37;1.10;;;0.97;;
13197;SDS011;6664;52.514;13.440;2022-09-09T16:09:05;1.10;;;1.00;;
13197;SDS011;6664;52.514;13.440;2022-09-09T16:11:34;2.70;;;1.20;;
13197;SDS011;6664;52.514;13.440;2022-09-09T16:14:03;1.60;;;1.10;;
13197;SDS011;6664;52.514;13.440;2022-09-09T16:16:31;1.60;;;0.90;;
13197;SDS011;6664;52.514;13.440;2022-09-09T16:18:59;1.80;;;1.07;;
13197;SDS011;6664;52.514;13.440;2022-09-09T16:21:32;3.00;;;1.10;;
13197;SDS011;6664;52.514;13.440;2022-09-09T16:24:03;3.13;;;0.87;;
13197;SDS011;6664;52.514;13.440;2022-09-09T16:26:32;2.30;;;1.13;;
13197;SDS011;6664;52.514;13.440;2022-09-09T16:29:03;2.33;;;1.30;;
13197;SDS011;6664;52.514;13.440;2022-09-09T16:31:30;2.43;;;1.03;;
13197;SDS011;6664;52.514;13.440;2022-09-09T16:33:58;2.60;;;1.13;;
13197;SDS011;6664;52.514;13.440;2022-09-09T16:36:27;1.10;;;0.90;;
13197;SDS011;6664;52.514;13.440;2022-09-09T16:39:01;1.63;;;1.00;;
13197;SDS011;6664;52.514;13.440;2022-09-09T16:41:30;3.83;;;1.30;;
13197;SDS011;6664;52.514;13.440;2022-09-09T16:43:58;2.30;;;1.13;;
13197;SDS011;6664;52.514;13.440;2022-09-09T16:46:32;1.83;;;1.03;;
13197;SDS011;6664;52.514;13.440;2022-09-09T16:49:06;1.27;;;1.17;;
13197;SDS011;6664;52.514;13.440;2022-09-09T16:51:49;3.97;;;1.10;;
13197;SDS011;6664;52.514;13.440;2022-09-09T16:54:19;3.03;;;1.17;;
13197;SDS011;6664;52.514;13.440;2022-09-09T16:56:46;1.17;;;1.00;;
13197;SDS011;6664;52.514;13.440;2022-09-09T16:59:15;1.40;;;1.23;;
13197;SDS011;6664;52.514;13.440;2022-09-09T17:01:44;6.00;;;1.40;;
13197;SDS011;6664;52.514;13.440;2022-09-09T17:04:13;1.17;;;1.07;;
13197;SDS011;6664;52.514;13.440;2022-09-09T17:06:47;1.20;;;1.00;;
13197;SDS011;6664;52.514;13.440;2022-09-09T17:09:15;0.80;;;0.80;;
13197;SDS011;6664;52.514;13.440;2022-09-09T17:11:43;2.53;;;1.83;;
13197;SDS011;6664;52.514;13.440;2022-09-09T17:14:14;4.20;;;1.40;;
13197;SDS011;6664;52.514;13.440;2022-09-09T17:16:42;2.83;;;1.10;;
13197;SDS011;6664;52.514;13.440;2022-09-09T17:19:10;5.90;;;1.20;;
13197;SDS011;6664;52.514;13.440;2022-09-09T17:21:38;6.47;;;1.30;;
13197;SDS011;6664;52.514;13.440;2022-09-09T17:24:30;1.90;;;1.23;;
13197;SDS011;6664;52.514;13.440;2022-09-09T17:27:00;5.63;;;1.50;;
13197;SDS011;6664;52.514;13.440;2022-09-09T17:29:28;3.43;;;1.00;;
13197;SDS011;6664;52.514;13.440;2022-09-09T17:31:55;4.50;;;1.60;;
13197;SDS011;6664;52.514;13.440;2022-09-09T17:34:24;2.70;;;1.47;;
13197;SDS011;6664;52.514;13.440;2022-09-09T17:36:51;1.20;;;0.90;;
13197;SDS011;6664;52.514;13.440;2022-09-09T17:39:18;3.30;;;1.80;;
13197;SDS011;6664;52.514;13.440;2022-09-09T17:41:45;2.90;;;1.30;;
13197;SDS011;6664;52.514;13.440;2022-09-09T17:44:12;4.70;;;1.80;;
13197;SDS011;6664;52.514;13.440;2022-09-09T17:46:42;1.53;;;1.40;;
13197;SDS011;6664;52.514;13.440;2022-09-09T17:49:12;1.03;;;0.93;;
13197;SDS011;6664;52.514;13.440;2022-09-09T17:51:44;2.03;;;1.20;;
13197;SDS011;6664;52.514;13.440;2022-09-09T17:54:13;2.60;;;1.17;;